Time;durP1;ratioP1;P1;durP2;ratioP2;P2;SDS_P1;SDS_P2;PMS_P1;PMS_P2;Temp;Humidity;BMP_temperature;BMP_pressure;BME280_temperature;BME280_humidity;BME280_pressure;Samples;Min_cycle;Max_cycle;Signal;HPM_P1;HPM_P2
2023/11/10 00:00:21;;;;;;;;;;;;;;;3.87;58.26;93936.25;4980174;28;19960;-80
2023/11/10 00:02:46;;;;;;;;;;;;;;;4.40;57.21;93935.47;4979675;28;20015;-82
2023/11/10 00:05:11;;;;;;;;;;;;;;;4.60;55.20;93940.19;4981729;28;19917;-80
2023/11/10 00:07:38;;;;;;;;;;;;;;;4.90;56.18;93923.53;4978922;28;19922;-83
2023/11/10 00:10:04;;;;;;;;;;;;;;;4.84;55.18;93930.34;4982469;28;20041;-79
2023/11/10 00:12:29;;;;;;;;;;;;;;;4.21;57.30;93930.72;4983106;28;19954;-80
2023/11/10 00:14:57;;;;;;;;;;;;;;;4.56;56.41;93913.34;4979748;28;19922;-80
2023/11/10 00:17:22;;;;;;;;;;;;;;;4.94;55.30;93915.03;4980966;28;20000;-77
2023/11/10 00:19:47;;;;;;;;;;;;;;;5.13;53.85;93902.31;4978908;28;20105;-79
2023/11/10 00:22:12;;;;;;;;;;;;;;;4.94;55.89;93908.97;4982070;28;19973;-80
2023/11/10 00:24:39;;;;;;;;;;;;;;;4.45;56.22;93917.28;4982322;28;19922;-81
2023/11/10 00:27:05;;;;;;;;;;;;;;;4.99;54.15;93916.34;4982012;28;19956;-81
2023/11/10 00:29:30;;;;;;;;;;;;;;;4.33;55.01;93918.72;4982364;28;19964;-81
2023/11/10 00:31:56;;;;;;;;;;;;;;;4.16;56.62;93918.91;4981922;28;19956;-81
2023/11/10 00:34:21;;;;;;;;;;;;;;;4.68;56.00;93905.00;4965800;28;20028;-82
2023/11/10 00:36:47;;;;;;;;;;;;;;;4.77;55.64;93911.00;4981787;28;19922;-79
2023/11/10 00:39:12;;;;;;;;;;;;;;;4.40;55.92;93921.44;4979206;28;20505;-80
2023/11/10 00:41:37;;;;;;;;;;;;;;;4.49;56.74;93917.72;4965112;28;19960;-79
2023/11/10 00:44:03;;;;;;;;;;;;;;;3.66;58.75;93919.31;4982244;28;20583;-81
2023/11/10 00:46:28;;;;;;;;;;;;;;;4.02;58.37;93920.47;4982674;28;19959;-79
2023/11/10 00:48:53;;;;;;;;;;;;;;;4.39;57.29;93917.19;4979326;28;19979;-80
2023/11/10 00:51:18;;;;;;;;;;;;;;;4.29;56.99;93923.53;4981390;28;19972;-80
2023/11/10 00:53:45;;;;;;;;;;;;;;;3.90;57.33;93925.38;4982162;28;20414;-82
2023/11/10 00:56:10;;;;;;;;;;;;;;;4.23;56.93;93910.25;4981935;28;19918;-79
2023/11/10 00:58:35;;;;;;;;;;;;;;;3.70;56.93;93914.50;4980770;28;20485;-82
2023/11/10 01:01:01;;;;;;;;;;;;;;;4.11;57.52;93923.88;4982428;28;19955;-83
2023/11/10 01:03:26;;;;;;;;;;;;;;;3.93;57.57;93909.22;4981412;28;19926;-80
2023/11/10 01:05:51;;;;;;;;;;;;;;;4.24;56.70;93904.00;4981701;28;20015;-79
2023/11/10 01:08:17;;;;;;;;;;;;;;;4.47;57.95;93900.47;4975897;28;19993;-79
2023/11/10 01:10:42;;;;;;;;;;;;;;;4.58;56.79;93900.00;4970987;28;20048;-79
2023/11/10 01:13:07;;;;;;;;;;;;;;;3.51;57.56;93906.09;4977760;28;20439;-79
2023/11/10 01:15:33;;;;;;;;;;;;;;;4.15;59.12;93901.44;4982567;28;19937;-78
2023/11/10 01:17:58;;;;;;;;;;;;;;;4.59;60.16;93906.91;4980674;28;19922;-79
2023/11/10 01:20:24;;;;;;;;;;;;;;;4.23;56.66;93912.91;4961069;28;19952;-79
2023/11/10 01:22:49;;;;;;;;;;;;;;;4.38;58.09;93913.72;4979943;28;19926;-79
2023/11/10 01:25:14;;;;;;;;;;;;;;;4.13;57.94;93910.53;4976461;28;19926;-78
2023/11/10 01:27:41;;;;;;;;;;;;;;;4.69;57.96;93907.44;4980782;28;19922;-78
2023/11/10 01:30:07;;;;;;;;;;;;;;;4.79;57.40;93901.06;4980612;28;19956;-79
2023/11/10 01:32:32;;;;;;;;;;;;;;;5.02;59.68;93905.41;4980998;28;19922;-79
2023/11/10 01:34:57;;;;;;;;;;;;;;;5.03;56.81;93905.22;4980001;28;20608;-79
2023/11/10 01:37:23;;;;;;;;;;;;;;;5.18;57.01;93899.13;4978675;28;20371;-79
2023/11/10 01:39:48;;;;;;;;;;;;;;;4.86;57.63;93888.78;4978890;28;19960;-79
2023/11/10 01:42:13;;;;;;;;;;;;;;;5.05;54.91;93891.84;4979166;28;20621;-79
2023/11/10 01:44:38;;;;;;;;;;;;;;;5.16;57.96;93882.66;4978827;28;20591;-79
2023/11/10 01:47:04;;;;;;;;;;;;;;;5.22;58.28;93869.56;4980225;28;19933;-79
2023/11/10 01:49:29;;;;;;;;;;;;;;;5.26;56.46;93875.25;4981320;28;19926;-79
2023/11/10 01:51:54;;;;;;;;;;;;;;;5.27;58.05;93870.81;4978935;28;19963;-79
2023/11/10 01:54:23;;;;;;;;;;;;;;;5.47;53.59;93858.59;4979530;28;19926;-79
2023/11/10 01:56:49;;;;;;;;;;;;;;;4.78;53.78;93860.72;4975096;28;19918;-78
2023/11/10 01:59:15;;;;;;;;;;;;;;;4.76;57.14;93864.53;4977080;28;19929;-78
2023/11/10 02:01:41;;;;;;;;;;;;;;;4.40;60.37;93863.47;4978877;28;19918;-79
2023/11/10 02:04:11;;;;;;;;;;;;;;;4.19;57.75;93855.28;4967605;28;20074;-79
2023/11/10 02:06:37;;;;;;;;;;;;;;;4.59;56.43;93854.19;4979012;28;19953;-79
2023/11/10 02:09:03;;;;;;;;;;;;;;;4.44;55.29;93849.78;4971170;28;19969;-79
2023/11/10 02:11:31;;;;;;;;;;;;;;;4.85;59.27;93847.59;4979686;28;19960;-79
2023/11/10 02:14:00;;;;;;;;;;;;;;;4.96;58.55;93843.66;4978623;28;20653;-79
2023/11/10 02:16:25;;;;;;;;;;;;;;;3.80;57.90;93848.44;4980347;28;19922;-79
2023/11/10 02:18:50;;;;;;;;;;;;;;;4.36;58.13;93839.31;4980130;28;20465;-78
2023/11/10 02:21:15;;;;;;;;;;;;;;;4.62;56.35;93845.91;4980934;28;19983;-78
2023/11/10 02:23:41;;;;;;;;;;;;;;;3.86;59.85;93845.13;4979714;28;19986;-78
2023/11/10 02:26:06;;;;;;;;;;;;;;;4.59;56.41;93841.00;4979126;28;19968;-77
2023/11/10 02:28:33;;;;;;;;;;;;;;;4.96;55.25;93833.94;4978790;28;19928;-79
2023/11/10 02:30:58;;;;;;;;;;;;;;;5.05;54.32;93820.63;4980358;28;19980;-79
2023/11/10 02:33:23;;;;;;;;;;;;;;;5.06;53.45;93830.19;4975686;28;20515;-79
2023/11/10 02:35:49;;;;;;;;;;;;;;;4.80;55.23;93827.06;4977836;28;19926;-79
2023/11/10 02:38:15;;;;;;;;;;;;;;;5.04;56.54;93834.81;4973796;28;19968;-78
2023/11/10 02:40:40;;;;;;;;;;;;;;;4.83;57.99;93823.25;4977034;28;19926;-77
2023/11/10 02:43:06;;;;;;;;;;;;;;;4.37;56.92;93827.78;4978992;28;20296;-80
2023/11/10 02:45:31;;;;;;;;;;;;;;;4.61;55.60;93835.56;4979110;28;19921;-79
2023/11/10 02:47:56;;;;;;;;;;;;;;;4.72;54.68;93835.06;4976720;28;19925;-78
2023/11/10 02:50:21;;;;;;;;;;;;;;;4.74;54.07;93833.09;4973534;28;20569;-78
2023/11/10 02:52:47;;;;;;;;;;;;;;;4.59;54.08;93841.00;4981405;28;20041;-78
2023/11/10 02:55:12;;;;;;;;;;;;;;;4.25;54.76;93840.59;4975551;28;20006;-77
2023/11/10 02:57:37;;;;;;;;;;;;;;;4.49;54.75;93843.13;4977923;28;19943;-77
2023/11/10 03:00:04;;;;;;;;;;;;;;;4.75;54.65;93842.63;4972693;28;20007;-79
2023/11/10 03:02:30;;;;;;;;;;;;;;;4.47;53.95;93850.38;4983193;28;20656;-78
2023/11/10 03:04:55;;;;;;;;;;;;;;;3.93;56.24;93851.31;4982942;28;19960;-79
2023/11/10 03:07:20;;;;;;;;;;;;;;;4.40;55.34;93848.50;4982607;28;19954;-79
2023/11/10 03:09:46;;;;;;;;;;;;;;;4.45;56.27;93843.50;4982408;28;20371;-77
2023/11/10 03:12:12;;;;;;;;;;;;;;;3.13;57.12;93840.25;4982901;28;20562;-77
2023/11/10 03:14:40;;;;;;;;;;;;;;;3.73;58.49;93837.00;4982137;28;19921;-77
2023/11/10 03:17:05;;;;;;;;;;;;;;;3.07;58.62;93844.41;4980987;28;19929;-79
2023/11/10 03:19:31;;;;;;;;;;;;;;;3.27;57.76;93836.84;4977766;28;19960;-79
2023/11/10 03:21:56;;;;;;;;;;;;;;;4.04;55.98;93828.13;4982805;28;20056;-79
2023/11/10 03:24:21;;;;;;;;;;;;;;;4.25;55.67;93824.78;4980355;28;20327;-79
2023/11/10 03:26:47;;;;;;;;;;;;;;;4.42;57.39;93822.75;4980070;28;19937;-79
2023/11/10 03:29:12;;;;;;;;;;;;;;;4.24;55.39;93824.94;4976489;28;19923;-79
2023/11/10 03:31:38;;;;;;;;;;;;;;;4.42;55.01;93829.88;4983278;28;19918;-79
2023/11/10 03:34:03;;;;;;;;;;;;;;;4.36;55.04;93822.69;4979355;28;20375;-79
2023/11/10 03:36:29;;;;;;;;;;;;;;;4.49;54.66;93827.31;4978982;28;19924;-79
2023/11/10 03:38:54;;;;;;;;;;;;;;;3.51;60.58;93827.16;4981726;28;20044;-79
2023/11/10 03:41:19;;;;;;;;;;;;;;;4.02;58.11;93816.97;4978963;28;19922;-79
2023/11/10 03:43:44;;;;;;;;;;;;;;;4.14;55.80;93823.44;4976397;28;20533;-79
2023/11/10 03:46:10;;;;;;;;;;;;;;;3.68;57.31;93822.56;4980531;28;20322;-79
2023/11/10 03:48:36;;;;;;;;;;;;;;;3.20;59.66;93822.75;4978396;28;19936;-79
2023/11/10 03:51:06;;;;;;;;;;;;;;;2.71;60.39;93821.28;4981412;28;19922;-79
2023/11/10 03:53:31;;;;;;;;;;;;;;;3.53;62.01;93808.56;4978160;28;19998;-79
2023/11/10 03:55:56;;;;;;;;;;;;;;;3.71;57.80;93805.59;4975474;28;19949;-78
2023/11/10 03:58:22;;;;;;;;;;;;;;;3.23;58.12;93811.09;4971796;28;19964;-79
2023/11/10 04:00:47;;;;;;;;;;;;;;;3.70;58.68;93803.16;4979982;28;19914;-79
2023/11/10 04:03:12;;;;;;;;;;;;;;;3.93;56.78;93809.16;4981423;28;20588;-79
2023/11/10 04:05:38;;;;;;;;;;;;;;;2.96;58.66;93813.25;4981147;28;20439;-79
2023/11/10 04:08:04;;;;;;;;;;;;;;;3.42;58.36;93815.88;4981309;28;19922;-78
2023/11/10 04:10:29;;;;;;;;;;;;;;;2.90;59.09;93805.06;4981122;28;20357;-79
2023/11/10 04:12:55;;;;;;;;;;;;;;;3.09;58.07;93808.22;4979263;28;19922;-79
2023/11/10 04:15:20;;;;;;;;;;;;;;;2.96;58.20;93800.91;4980702;28;20053;-79
2023/11/10 04:17:45;;;;;;;;;;;;;;;3.69;56.64;93791.81;4979590;28;19972;-79
2023/11/10 04:20:11;;;;;;;;;;;;;;;2.30;61.47;93803.91;4980057;28;19913;-79
2023/11/10 04:22:40;;;;;;;;;;;;;;;2.17;60.67;93799.22;4977940;28;19922;-78
2023/11/10 04:25:06;;;;;;;;;;;;;;;3.37;57.59;93801.63;4981324;28;19966;-79
2023/11/10 04:27:32;;;;;;;;;;;;;;;3.65;56.14;93801.06;4980637;28;19929;-79
2023/11/10 04:30:00;;;;;;;;;;;;;;;2.10;60.85;93799.91;4979114;28;20031;-81
2023/11/10 04:32:25;;;;;;;;;;;;;;;2.99;57.70;93811.09;4984295;28;19932;-80
2023/11/10 04:34:50;;;;;;;;;;;;;;;2.61;58.33;93796.06;4977428;28;19932;-80
2023/11/10 04:37:15;;;;;;;;;;;;;;;2.63;60.44;93796.69;4981296;28;20373;-80
2023/11/10 04:39:40;;;;;;;;;;;;;;;2.55;60.31;93804.63;4976983;28;19980;-79
2023/11/10 04:42:06;;;;;;;;;;;;;;;3.20;57.89;93806.19;4981234;28;19992;-80
2023/11/10 04:44:31;;;;;;;;;;;;;;;3.58;57.25;93800.97;4983380;28;19999;-81
2023/11/10 04:46:57;;;;;;;;;;;;;;;3.26;58.50;93798.41;4980131;28;19958;-81
2023/11/10 04:49:22;;;;;;;;;;;;;;;2.20;60.79;93801.50;4979370;28;19972;-80
2023/11/10 04:51:48;;;;;;;;;;;;;;;2.57;60.53;93800.00;4982389;28;19922;-80
2023/11/10 04:54:13;;;;;;;;;;;;;;;0.66;66.88;93808.19;4977515;28;20000;-78
2023/11/10 04:56:45;;;;;;;;;;;;;;;2.60;59.82;93802.31;4973670;28;19967;-80
2023/11/10 04:59:11;;;;;;;;;;;;;;;1.84;62.64;93795.69;4974630;28;20078;-80
2023/11/10 05:01:39;;;;;;;;;;;;;;;2.88;58.51;93807.06;4974628;28;20009;-80
2023/11/10 05:04:05;;;;;;;;;;;;;;;3.04;58.97;93800.84;4976397;28;19978;-82
2023/11/10 05:06:31;;;;;;;;;;;;;;;2.30;60.23;93791.59;4981159;28;20503;-81
2023/11/10 05:08:56;;;;;;;;;;;;;;;2.85;61.14;93790.81;4960274;28;19937;-81
2023/11/10 05:11:22;;;;;;;;;;;;;;;3.29;58.01;93798.06;4981620;28;19926;-80
2023/11/10 05:13:47;;;;;;;;;;;;;;;3.43;57.04;93799.09;4979376;28;19967;-79
2023/11/10 05:16:13;;;;;;;;;;;;;;;3.04;57.78;93800.06;4980936;28;20011;-83
2023/11/10 05:18:38;;;;;;;;;;;;;;;3.60;55.96;93806.84;4980771;28;19964;-83
2023/11/10 05:21:04;;;;;;;;;;;;;;;2.89;59.63;93806.06;4979969;28;20041;-81
2023/11/10 05:23:29;;;;;;;;;;;;;;;3.07;57.80;93804.97;4979379;28;19977;-82
2023/11/10 05:25:54;;;;;;;;;;;;;;;3.40;57.38;93798.59;4975937;28;20616;-79
2023/11/10 05:28:19;;;;;;;;;;;;;;;3.51;56.14;93802.66;4981089;28;20013;-79
2023/11/10 05:30:44;;;;;;;;;;;;;;;3.81;56.94;93789.53;4980844;28;19992;-80
2023/11/10 05:33:10;;;;;;;;;;;;;;;3.84;55.50;93796.28;4982134;28;20007;-81
2023/11/10 05:35:36;;;;;;;;;;;;;;;3.47;56.35;93806.66;4976865;28;20499;-79
2023/11/10 05:38:01;;;;;;;;;;;;;;;3.56;56.18;93808.19;4980321;28;19985;-83
2023/11/10 05:40:27;;;;;;;;;;;;;;;2.36;59.41;93806.69;4972187;28;19956;-78
2023/11/10 05:42:53;;;;;;;;;;;;;;;2.79;58.38;93808.09;4980373;28;20317;-78
2023/11/10 05:45:18;;;;;;;;;;;;;;;2.35;59.82;93810.28;4973948;28;19963;-77
2023/11/10 05:47:43;;;;;;;;;;;;;;;3.03;58.70;93812.38;4974740;28;19965;-78
2023/11/10 05:50:09;;;;;;;;;;;;;;;1.84;61.14;93810.66;4972336;28;20376;-76
2023/11/10 05:52:35;;;;;;;;;;;;;;;2.86;58.66;93816.13;4980333;28;19940;-77
2023/11/10 05:55:00;;;;;;;;;;;;;;;1.40;63.17;93820.50;4974362;28;19953;-76
2023/11/10 05:57:25;;;;;;;;;;;;;;;3.01;58.51;93819.63;4983983;28;19940;-78
2023/11/10 05:59:51;;;;;;;;;;;;;;;3.09;58.52;93821.38;4979968;28;20440;-77
2023/11/10 06:02:17;;;;;;;;;;;;;;;3.61;55.96;93816.38;4979947;28;19966;-78
2023/11/10 06:04:42;;;;;;;;;;;;;;;3.02;58.10;93826.53;4978535;28;20023;-78
2023/11/10 06:07:08;;;;;;;;;;;;;;;2.94;58.82;93820.50;4978421;28;19992;-78
2023/11/10 06:09:33;;;;;;;;;;;;;;;3.12;57.85;93823.66;4975585;28;19995;-78
2023/11/10 06:11:58;;;;;;;;;;;;;;;2.82;59.15;93812.19;4978702;28;19980;-78
2023/11/10 06:14:24;;;;;;;;;;;;;;;2.21;61.45;93832.03;4976464;28;19968;-76
2023/11/10 06:16:49;;;;;;;;;;;;;;;2.47;59.85;93823.88;4980209;28;20275;-79
2023/11/10 06:19:15;;;;;;;;;;;;;;;2.31;60.22;93835.25;4972952;28;20565;-78
2023/11/10 06:21:41;;;;;;;;;;;;;;;2.03;60.69;93830.44;4979554;28;19959;-64
2023/11/10 06:24:07;;;;;;;;;;;;;;;0.84;64.88;93832.44;4975962;28;20399;-65
2023/11/10 06:26:32;;;;;;;;;;;;;;;0.94;64.50;93832.31;4987735;28;20340;-64
2023/11/10 06:28:58;;;;;;;;;;;;;;;1.50;63.03;93826.41;4985637;28;20546;-66
2023/11/10 06:31:23;;;;;;;;;;;;;;;0.68;64.04;93854.19;4988595;28;19971;-66
2023/11/10 06:33:49;;;;;;;;;;;;;;;1.22;64.56;93839.84;4984908;28;19997;-67
2023/11/10 06:36:16;;;;;;;;;;;;;;;0.84;66.19;93849.97;4987398;28;19966;-66
2023/11/10 06:38:42;;;;;;;;;;;;;;;1.72;63.38;93844.28;4987805;28;19971;-65
2023/11/10 06:41:07;;;;;;;;;;;;;;;2.09;61.50;93845.53;4987617;28;19940;-63
2023/11/10 06:43:32;;;;;;;;;;;;;;;0.87;66.22;93843.56;4988858;28;20076;-63
2023/11/10 06:45:57;;;;;;;;;;;;;;;1.46;63.27;93838.22;4982688;28;20103;-65
2023/11/10 06:48:22;;;;;;;;;;;;;;;2.10;61.26;93835.81;4984887;28;20004;-66
2023/11/10 06:50:48;;;;;;;;;;;;;;;1.87;61.68;93832.13;4986279;28;19961;-67
2023/11/10 06:53:13;;;;;;;;;;;;;;;1.84;61.20;93839.53;4989634;28;19943;-66
2023/11/10 06:55:38;;;;;;;;;;;;;;;2.09;61.30;93840.28;4989883;28;19955;-67
2023/11/10 06:58:04;;;;;;;;;;;;;;;2.27;60.67;93841.84;4985629;28;19962;-68
2023/11/10 07:00:30;;;;;;;;;;;;;;;2.44;60.11;93844.41;4989209;28;19936;-78
2023/11/10 07:03:00;;;;;;;;;;;;;;;1.31;63.49;93845.94;4982609;28;19958;-78
2023/11/10 07:05:28;;;;;;;;;;;;;;;2.16;60.66;93852.72;4981153;28;19974;-78
2023/11/10 07:07:54;;;;;;;;;;;;;;;2.52;59.66;93850.44;4985430;28;19954;-77
2023/11/10 07:10:19;;;;;;;;;;;;;;;2.14;60.89;93860.75;4981622;28;19963;-78
2023/11/10 07:12:45;;;;;;;;;;;;;;;1.90;62.37;93849.31;4981403;28;19929;-78
2023/11/10 07:15:10;;;;;;;;;;;;;;;2.20;60.84;93851.38;4981369;28;19982;-77
2023/11/10 07:17:36;;;;;;;;;;;;;;;2.03;61.34;93854.06;4981245;28;19937;-78
2023/11/10 07:20:05;;;;;;;;;;;;;;;2.46;59.98;93853.78;4985897;28;19962;-78
2023/11/10 07:22:30;;;;;;;;;;;;;;;2.63;60.46;93856.31;4981270;28;20612;-77
2023/11/10 07:24:55;;;;;;;;;;;;;;;2.45;59.87;93859.19;4982079;28;19963;-78
2023/11/10 07:27:21;;;;;;;;;;;;;;;2.06;62.07;93872.09;4981118;28;20437;-79
2023/11/10 07:29:46;;;;;;;;;;;;;;;1.23;63.50;93862.47;4986463;28;20313;-71
2023/11/10 07:32:11;;;;;;;;;;;;;;;2.26;61.71;93867.31;4986118;28;19939;-72
2023/11/10 07:34:36;;;;;;;;;;;;;;;1.50;63.02;93873.63;4987709;28;19954;-69
2023/11/10 07:37:02;;;;;;;;;;;;;;;2.43;60.86;93882.16;4986795;28;19918;-71
2023/11/10 07:39:28;;;;;;;;;;;;;;;2.50;61.20;93872.63;4986707;28;19960;-70
2023/11/10 07:41:57;;;;;;;;;;;;;;;3.11;58.24;93874.63;4989049;28;19942;-71
2023/11/10 07:44:22;;;;;;;;;;;;;;;3.64;57.22;93888.91;4989165;28;19925;-72
2023/11/10 07:46:47;;;;;;;;;;;;;;;3.39;57.35;93882.00;4986924;28;19959;-70
2023/11/10 07:49:13;;;;;;;;;;;;;;;3.42;58.17;93871.13;4987613;28;19963;-70
2023/11/10 07:51:38;;;;;;;;;;;;;;;2.78;59.33;93877.41;4988709;28;20500;-72
2023/11/10 07:54:04;;;;;;;;;;;;;;;1.06;62.73;93879.97;4988450;28;19938;-71
2023/11/10 07:56:29;;;;;;;;;;;;;;;2.48;59.95;93890.34;4987712;28;19960;-71
2023/11/10 07:58:54;;;;;;;;;;;;;;;3.10;58.02;93883.47;4983175;28;19969;-70
2023/11/10 08:01:19;;;;;;;;;;;;;;;2.51;58.98;93890.84;4986114;28;19952;-70
2023/11/10 08:03:44;;;;;;;;;;;;;;;2.37;59.75;93888.91;4987773;28;19968;-70
2023/11/10 08:06:10;;;;;;;;;;;;;;;2.89;58.47;93907.75;4988269;28;19953;-70
2023/11/10 08:08:36;;;;;;;;;;;;;;;2.38;60.18;93903.69;4986449;28;19932;-70
2023/11/10 08:11:01;;;;;;;;;;;;;;;2.72;58.39;93896.53;4987767;28;19957;-69
2023/11/10 08:13:27;;;;;;;;;;;;;;;2.60;59.04;93890.81;4989256;28;20028;-70
2023/11/10 08:15:52;;;;;;;;;;;;;;;1.58;61.20;93906.94;4988510;28;20086;-70
2023/11/10 08:18:18;;;;;;;;;;;;;;;1.78;61.12;93911.84;4987448;28;19933;-68
2023/11/10 08:20:44;;;;;;;;;;;;;;;2.49;59.47;93905.94;4990080;28;19946;-69
2023/11/10 08:23:09;;;;;;;;;;;;;;;2.07;59.98;93907.88;4983114;28;20084;-69
2023/11/10 08:25:35;;;;;;;;;;;;;;;1.18;62.70;93898.00;4990196;28;19942;-69
2023/11/10 08:28:04;;;;;;;;;;;;;;;1.25;63.78;93919.97;4987686;28;19958;-68
2023/11/10 08:30:30;;;;;;;;;;;;;;;2.06;61.49;93903.63;4988580;28;19955;-69
2023/11/10 08:32:55;;;;;;;;;;;;;;;2.05;61.19;93903.78;4986448;28;19996;-70
2023/11/10 08:35:21;;;;;;;;;;;;;;;2.38;60.17;93917.66;4986152;28;20601;-70
2023/11/10 08:37:46;;;;;;;;;;;;;;;2.82;58.44;93912.09;4984184;28;20027;-69
2023/11/10 08:40:12;;;;;;;;;;;;;;;1.76;62.20;93919.06;4977816;28;19953;-67
2023/11/10 08:42:41;;;;;;;;;;;;;;;2.62;58.99;93912.50;4975773;28;19949;-69
2023/11/10 08:45:06;;;;;;;;;;;;;;;2.55;58.91;93907.06;4979025;28;20692;-68
2023/11/10 08:47:32;;;;;;;;;;;;;;;2.49;58.51;93913.03;4982916;28;19944;-70
2023/11/10 08:49:57;;;;;;;;;;;;;;;3.02;57.66;93917.72;4987210;28;19937;-69
2023/11/10 08:52:24;;;;;;;;;;;;;;;2.95;57.65;93917.59;4988096;28;19938;-69
2023/11/10 08:54:50;;;;;;;;;;;;;;;1.69;60.78;93918.91;4986735;28;20005;-68
2023/11/10 08:57:15;;;;;;;;;;;;;;;3.00;58.54;93914.47;4986442;28;19987;-70
2023/11/10 08:59:41;;;;;;;;;;;;;;;3.02;58.17;93907.19;4984557;28;19953;-70
2023/11/10 09:02:06;;;;;;;;;;;;;;;3.58;57.05;93906.22;4982765;28;19957;-69
2023/11/10 09:04:32;;;;;;;;;;;;;;;3.38;56.48;93916.38;4986849;28;19999;-68
2023/11/10 09:06:57;;;;;;;;;;;;;;;2.93;57.33;93909.06;4986989;28;20003;-68
2023/11/10 09:09:22;;;;;;;;;;;;;;;3.72;54.79;93917.81;4989271;28;19976;-67
2023/11/10 09:11:47;;;;;;;;;;;;;;;1.84;60.05;93920.88;4985585;28;20010;-68
2023/11/10 09:14:13;;;;;;;;;;;;;;;2.98;57.05;93911.16;4983202;28;20198;-67
2023/11/10 09:16:39;;;;;;;;;;;;;;;3.45;55.62;93912.06;4986144;28;19978;-66
2023/11/10 09:19:04;;;;;;;;;;;;;;;2.19;58.26;93916.22;4988194;28;19925;-68
2023/11/10 09:21:29;;;;;;;;;;;;;;;1.53;60.01;93930.19;4985634;28;19982;-67
2023/11/10 09:23:54;;;;;;;;;;;;;;;2.93;57.15;93921.38;4981848;28;19975;-67
2023/11/10 09:26:20;;;;;;;;;;;;;;;2.91;58.15;93911.88;4985757;28;20392;-67
2023/11/10 09:28:47;;;;;;;;;;;;;;;2.57;57.61;93907.75;4987139;28;19954;-68
2023/11/10 09:31:13;;;;;;;;;;;;;;;2.59;57.23;93913.63;4986371;28;20386;-69
2023/11/10 09:33:38;;;;;;;;;;;;;;;3.70;56.47;93901.34;4986969;28;19921;-68
2023/11/10 09:36:03;;;;;;;;;;;;;;;2.23;58.13;93920.16;4986098;28;19967;-71
2023/11/10 09:38:29;;;;;;;;;;;;;;;2.05;58.01;93922.16;4985504;28;19929;-67
2023/11/10 09:40:54;;;;;;;;;;;;;;;3.38;55.92;93917.19;4985268;28;20291;-68
2023/11/10 09:43:19;;;;;;;;;;;;;;;2.94;57.31;93917.75;4985675;28;19960;-69
2023/11/10 09:45:48;;;;;;;;;;;;;;;3.39;56.50;93928.50;4985483;28;19968;-68
2023/11/10 09:48:14;;;;;;;;;;;;;;;3.47;55.31;93922.44;4984317;28;20377;-68
2023/11/10 09:50:39;;;;;;;;;;;;;;;1.83;59.24;93925.28;4984086;28;20010;-69
2023/11/10 09:53:04;;;;;;;;;;;;;;;3.44;55.77;93920.94;4984880;28;20567;-68
2023/11/10 09:55:30;;;;;;;;;;;;;;;3.75;54.38;93899.03;4980788;28;19926;-67
2023/11/10 09:57:55;;;;;;;;;;;;;;;2.47;58.45;93915.81;4985943;28;19926;-68
2023/11/10 10:00:20;;;;;;;;;;;;;;;3.75;58.01;93914.00;4981933;28;19922;-68
2023/11/10 10:02:45;;;;;;;;;;;;;;;3.40;55.98;93911.72;4987054;28;20406;-66
2023/11/10 10:05:11;;;;;;;;;;;;;;;4.12;54.25;93911.53;4984418;28;19949;-71
2023/11/10 10:07:36;;;;;;;;;;;;;;;3.72;55.30;93914.34;4975690;28;20069;-68
2023/11/10 10:10:01;;;;;;;;;;;;;;;3.31;56.33;93921.50;4984722;28;19925;-69
2023/11/10 10:12:29;;;;;;;;;;;;;;;3.84;55.05;93899.75;4987936;28;20108;-70
2023/11/10 10:14:54;;;;;;;;;;;;;;;3.95;53.95;93906.41;4985752;28;20454;-67
2023/11/10 10:17:19;;;;;;;;;;;;;;;3.30;55.58;93904.06;4986163;28;19973;-69
2023/11/10 10:19:48;;;;;;;;;;;;;;;3.30;56.18;93906.69;4985700;28;19961;-67
2023/11/10 10:22:22;;;;;;;;;;;;;;;2.33;58.17;93914.72;4984481;28;19969;-69
2023/11/10 10:24:47;;;;;;;;;;;;;;;3.15;55.85;93904.00;4987126;28;19953;-68
2023/11/10 10:27:13;;;;;;;;;;;;;;;2.42;56.96;93906.81;4985116;28;19952;-69
2023/11/10 10:29:39;;;;;;;;;;;;;;;3.40;56.02;93904.66;4985768;28;19968;-67
2023/11/10 10:32:04;;;;;;;;;;;;;;;3.22;54.56;93910.22;4979537;28;20747;-66
2023/11/10 10:34:30;;;;;;;;;;;;;;;3.89;53.82;93907.94;4985298;28;19933;-68
2023/11/10 10:36:55;;;;;;;;;;;;;;;2.37;56.81;93909.94;4985484;28;19940;-69
2023/11/10 10:39:20;;;;;;;;;;;;;;;3.86;54.48;93907.47;4985122;28;19922;-67
2023/11/10 10:41:47;;;;;;;;;;;;;;;3.28;58.22;93900.81;4986426;28;19930;-67
2023/11/10 10:44:12;;;;;;;;;;;;;;;4.09;58.06;93902.19;4985313;28;19926;-68
2023/11/10 10:46:38;;;;;;;;;;;;;;;3.31;58.60;93900.47;4984468;28;19984;-68
2023/11/10 10:49:03;;;;;;;;;;;;;;;2.95;55.67;93886.03;4984443;28;20010;-67
2023/11/10 10:51:37;;;;;;;;;;;;;;;1.87;58.13;93883.78;4985392;28;19932;-69
2023/11/10 10:54:06;;;;;;;;;;;;;;;3.07;54.47;93886.47;4984236;28;19964;-69
2023/11/10 10:56:37;;;;;;;;;;;;;;;3.45;54.93;93890.19;4987864;28;20009;-71
2023/11/10 10:59:06;;;;;;;;;;;;;;;3.65;54.42;93874.75;4982429;28;19964;-68
2023/11/10 11:01:33;;;;;;;;;;;;;;;2.61;55.79;93888.00;4978101;28;20543;-67
2023/11/10 11:04:04;;;;;;;;;;;;;;;2.98;54.91;93882.25;4978145;28;19964;-65
2023/11/10 11:06:30;;;;;;;;;;;;;;;3.43;54.14;93883.28;4978701;28;19928;-68
2023/11/10 11:08:59;;;;;;;;;;;;;;;3.62;54.06;93875.94;4975979;28;20590;-68
2023/11/10 11:11:34;;;;;;;;;;;;;;;3.89;53.67;93875.53;4976608;28;20472;-67
2023/11/10 11:14:17;;;;;;;;;;;;;;;4.05;51.82;93874.56;4982828;28;19952;-68
2023/11/10 11:16:46;;;;;;;;;;;;;;;2.75;55.60;93854.09;5001076;28;19929;-68
2023/11/10 11:19:24;;;;;;;;;;;;;;;3.71;52.63;93863.50;4988867;28;20300;-68
2023/11/10 11:21:50;;;;;;;;;;;;;;;3.93;52.30;93853.94;4985992;28;20308;-68
2023/11/10 11:24:18;;;;;;;;;;;;;;;4.44;50.59;93846.31;4988807;28;19929;-69
2023/11/10 11:26:55;;;;;;;;;;;;;;;3.66;52.50;93861.41;4988092;28;20046;-68
2023/11/10 11:29:21;;;;;;;;;;;;;;;4.39;49.75;93844.22;4985723;28;20038;-71
2023/11/10 11:31:46;;;;;;;;;;;;;;;4.09;50.83;93849.50;4987537;28;20032;-71
2023/11/10 11:34:13;;;;;;;;;;;;;;;4.77;49.59;93840.63;4985504;28;19998;-70
2023/11/10 11:36:38;;;;;;;;;;;;;;;5.27;48.55;93836.50;4989536;28;19972;-69
2023/11/10 11:39:03;;;;;;;;;;;;;;;3.89;51.32;93836.03;4986798;28;19972;-68
2023/11/10 11:41:29;;;;;;;;;;;;;;;4.81;48.71;93833.97;4987103;28;19932;-68
2023/11/10 11:43:54;;;;;;;;;;;;;;;4.12;50.36;93821.97;4986901;28;20031;-68
2023/11/10 11:46:20;;;;;;;;;;;;;;;4.61;47.55;93819.72;4988377;28;19926;-66
2023/11/10 11:48:45;;;;;;;;;;;;;;;3.58;50.98;93829.91;4989476;28;19930;-68
2023/11/10 11:51:11;;;;;;;;;;;;;;;3.63;50.48;93821.47;4987605;28;20513;-68
2023/11/10 11:53:37;;;;;;;;;;;;;;;4.07;49.91;93825.16;4984504;28;20016;-68
2023/11/10 11:56:02;;;;;;;;;;;;;;;4.59;47.84;93817.28;4985577;28;20471;-69
2023/11/10 11:58:27;;;;;;;;;;;;;;;5.24;46.50;93807.84;4989252;28;19952;-68
2023/11/10 12:00:53;;;;;;;;;;;;;;;4.84;48.04;93806.41;4986760;28;19925;-69
2023/11/10 12:03:18;;;;;;;;;;;;;;;4.38;47.80;93816.22;4984589;28;20052;-68
2023/11/10 12:05:47;;;;;;;;;;;;;;;3.07;54.21;93825.19;4987103;28;19918;-68
2023/11/10 12:08:12;;;;;;;;;;;;;;;4.64;50.58;93804.38;4987993;28;20064;-68
2023/11/10 12:10:38;;;;;;;;;;;;;;;1.88;54.03;93839.00;4986866;28;20595;-69
2023/11/10 12:13:04;;;;;;;;;;;;;;;4.05;50.57;93821.88;4985308;28;19987;-70
2023/11/10 12:15:29;;;;;;;;;;;;;;;4.12;51.16;93824.59;4984061;28;19922;-68
2023/11/10 12:17:55;;;;;;;;;;;;;;;3.54;52.41;93826.00;4976055;28;19948;-67
2023/11/10 12:20:22;;;;;;;;;;;;;;;4.99;48.20;93816.91;4985774;28;19956;-67
2023/11/10 12:22:54;;;;;;;;;;;;;;;3.01;54.52;93826.69;4984618;28;19929;-68
2023/11/10 12:25:29;;;;;;;;;;;;;;;3.92;50.93;93828.56;4984973;28;20043;-69
2023/11/10 12:27:55;;;;;;;;;;;;;;;2.77;54.43;93831.13;4985556;28;20585;-69
2023/11/10 12:30:20;;;;;;;;;;;;;;;4.44;51.92;93810.25;4984207;28;19929;-68
2023/11/10 12:32:49;;;;;;;;;;;;;;;4.39;49.84;93823.13;4987148;28;19925;-68
2023/11/10 12:35:14;;;;;;;;;;;;;;;3.85;51.26;93816.31;4985848;28;19959;-69
2023/11/10 12:37:39;;;;;;;;;;;;;;;4.18;50.02;93818.59;4984398;28;19944;-68
2023/11/10 12:40:11;;;;;;;;;;;;;;;3.73;51.07;93818.56;4987566;28;20665;-69
2023/11/10 12:42:36;;;;;;;;;;;;;;;2.76;52.19;93825.03;4984266;28;20626;-68
2023/11/10 12:45:01;;;;;;;;;;;;;;;3.78;51.45;93813.59;4986254;28;19980;-68
2023/11/10 12:47:32;;;;;;;;;;;;;;;2.36;55.68;93825.09;4983626;28;19972;-68
2023/11/10 12:49:59;;;;;;;;;;;;;;;4.19;50.41;93812.34;4987223;28;19962;-69